createdAt,value
2018-05-14T00:00:57.714Z,1004.35
2018-05-14T00:10:57.794Z,1004.17
2018-05-14T00:20:57.763Z,1004.22
2018-05-14T00:30:57.829Z,1004.12
2018-05-14T00:40:57.774Z,1003.88
2018-05-14T00:50:57.727Z,1003.84
2018-05-14T01:00:57.782Z,1003.79
2018-05-14T01:10:57.743Z,1003.68
2018-05-14T01:20:57.803Z,1003.66
2018-05-14T01:30:57.778Z,1003.68
2018-05-14T01:40:57.845Z,1003.67
2018-05-14T01:50:57.906Z,1003.66
2018-05-14T02:00:59.195Z,1003.72
2018-05-14T02:10:58.588Z,1003.69
2018-05-14T02:20:57.880Z,1003.67
2018-05-14T02:30:57.851Z,1003.7
2018-05-14T02:40:57.909Z,1003.65
2018-05-14T02:50:57.879Z,1003.61
2018-05-14T03:00:57.930Z,1003.62
2018-05-14T03:10:57.888Z,1003.72
2018-05-14T03:20:57.958Z,1003.54
2018-05-14T03:30:57.919Z,1003.63
2018-05-14T03:40:57.982Z,1003.62
2018-05-14T03:50:57.955Z,1003.6
2018-05-14T04:00:58.016Z,1003.76
2018-05-14T04:10:57.989Z,1003.82
2018-05-14T04:20:58.016Z,1003.84
2018-05-14T04:30:57.992Z,1003.74
2018-05-14T04:40:58.070Z,1003.94
2018-05-14T04:50:58.013Z,1003.99
2018-05-14T05:00:57.974Z,1004.02
2018-05-14T05:10:58.048Z,1004
2018-05-14T05:20:58.097Z,1004.06
2018-05-14T05:30:58.055Z,1004.09
2018-05-14T05:40:58.033Z,1004.16
2018-05-14T05:50:58.145Z,1004.18
2018-05-14T06:00:58.067Z,1004.28
2018-05-14T06:10:58.121Z,1004.49
2018-05-14T06:20:58.074Z,1004.38
2018-05-14T06:30:58.129Z,1004.39
2018-05-14T06:40:58.109Z,1004.42
2018-05-14T06:50:58.093Z,1004.57
2018-05-14T07:00:58.062Z,1004.61
2018-05-14T07:10:58.135Z,1004.75
2018-05-14T07:20:58.145Z,1004.8
2018-05-14T07:30:58.164Z,1004.82
2018-05-14T07:40:58.113Z,1004.91
2018-05-14T07:50:58.101Z,1005
2018-05-14T08:00:58.137Z,1005.01
2018-05-14T08:10:58.103Z,1004.95
2018-05-14T08:20:58.149Z,1005.06
2018-05-14T08:30:58.127Z,1004.94
2018-05-14T08:50:58.158Z,1004.97
2018-05-14T09:00:58.111Z,1005
2018-05-14T09:11:07.611Z,1005.01
2018-05-14T09:21:08.460Z,1004.96
2018-05-14T09:31:09.726Z,1004.97
2018-05-14T09:41:10.560Z,1004.96
2018-05-14T09:51:09.509Z,1004.93
2018-05-14T10:01:09.504Z,1004.94
2018-05-14T10:11:08.587Z,1004.94
2018-05-14T10:20:58.130Z,1004.9
2018-05-14T10:30:58.130Z,1004.99
2018-05-14T10:40:58.102Z,1004.97
2018-05-14T10:50:58.107Z,1004.96
2018-05-14T11:00:58.095Z,1004.99
2018-05-14T11:10:58.120Z,1005.07
2018-05-14T11:20:58.127Z,1004.98
2018-05-14T11:30:58.125Z,1004.97
2018-05-14T11:40:58.101Z,1005
2018-05-14T11:50:58.117Z,1005.11
2018-05-14T12:00:58.104Z,1005
2018-05-14T12:10:58.101Z,1005.03
2018-05-14T12:20:58.122Z,1005.07
2018-05-14T12:30:58.150Z,1004.97
2018-05-14T12:40:58.155Z,1005.04
2018-05-14T12:50:58.121Z,1004.95
2018-05-14T13:00:58.137Z,1004.87
2018-05-14T13:10:58.351Z,1004.84
2018-05-14T13:20:58.155Z,1004.83
2018-05-14T13:30:58.151Z,1004.96
2018-05-14T13:40:58.153Z,1004.88
2018-05-14T13:50:58.201Z,1004.91
2018-05-14T14:00:58.138Z,1004.78
2018-05-14T14:10:58.124Z,1004.82
2018-05-14T14:20:58.148Z,1004.82
2018-05-14T14:30:58.183Z,1004.79
2018-05-14T14:40:58.132Z,1004.75
2018-05-14T14:50:58.189Z,1004.73
2018-05-14T15:00:58.139Z,1004.74
2018-05-14T15:10:58.155Z,1004.59
2018-05-14T15:20:58.186Z,1004.54
2018-05-14T15:30:58.145Z,1004.61
2018-05-14T15:40:58.163Z,1004.54
2018-05-14T15:50:58.290Z,1004.46
2018-05-14T16:00:58.192Z,1004.48
2018-05-14T16:10:58.253Z,1004.39
2018-05-14T16:20:58.310Z,1004.32
2018-05-14T16:30:58.259Z,1004.31
2018-05-14T16:40:58.224Z,1004.41
2018-05-14T16:50:58.301Z,1004.5
2018-05-14T17:00:58.881Z,1004.53
2018-05-14T17:20:58.535Z,1004.63
2018-05-14T17:31:00.279Z,1004.71
2018-05-14T17:41:02.124Z,1004.71
2018-05-14T18:00:58.192Z,1004.82
2018-05-14T18:10:58.361Z,1004.8
2018-05-14T18:31:03.288Z,1004.92
2018-05-14T18:40:58.305Z,1004.98
2018-05-14T18:50:58.283Z,1005.02
2018-05-14T19:00:58.228Z,1005.12
2018-05-14T19:10:58.202Z,1005.28
2018-05-14T19:20:58.270Z,1005.48
2018-05-14T19:30:58.252Z,1005.54
2018-05-14T19:40:58.292Z,1005.7
2018-05-14T19:50:58.334Z,1005.86
2018-05-14T20:01:01.549Z,1005.99
2018-05-14T20:20:58.299Z,1006.11
2018-05-14T20:30:58.250Z,1006.22
2018-05-14T20:40:58.292Z,1006.27
2018-05-14T20:50:58.423Z,1006.3
2018-05-14T21:00:58.672Z,1006.37
2018-05-14T21:10:58.325Z,1006.43
2018-05-14T21:20:58.241Z,1006.57
2018-05-14T21:30:58.350Z,1006.73
2018-05-14T21:40:58.260Z,1006.83
2018-05-14T21:50:58.258Z,1006.94
2018-05-14T22:00:58.313Z,1006.99
2018-05-14T22:10:58.261Z,1007.04
2018-05-14T22:21:33.129Z,1007.09
2018-05-14T22:30:58.265Z,1007.17
2018-05-14T22:40:58.332Z,1007.21
2018-05-14T22:50:58.268Z,1007.21
2018-05-14T23:00:58.455Z,1007.22
2018-05-14T23:10:58.287Z,1007.27
2018-05-14T23:20:58.253Z,1007.27
2018-05-14T23:30:58.226Z,1007.25
2018-05-14T23:50:58.333Z,1007.34
